Time;durP1;ratioP1;P1;durP2;ratioP2;P2;SDS_P1;SDS_P2;PMS_P1;PMS_P2;Temp;Humidity;BMP_temperature;BMP_pressure;BME280_temperature;BME280_humidity;BME280_pressure;Samples;Min_cycle;Max_cycle;Signal;HPM_P1;HPM_P2
2023/08/08 00:00:51;;;;;;;7.22;2.42;;;;;;;18.75;63.87;101342.00;5053559;28;20053;-64
2023/08/08 00:03:19;;;;;;;6.55;1.98;;;;;;;18.79;63.54;101337.34;5086962;28;20056;-64
2023/08/08 00:05:46;;;;;;;6.50;2.33;;;;;;;18.80;63.50;101344.53;5054811;28;20386;-64
2023/08/08 00:08:13;;;;;;;6.25;1.95;;;;;;;18.72;63.84;101337.13;5054918;28;20049;-64
2023/08/08 00:10:41;;;;;;;7.00;2.30;;;;;;;18.41;64.49;101334.97;5036308;28;20053;-63
2023/08/08 00:13:08;;;;;;;11.27;1.95;;;;;;;18.42;64.51;101330.22;5042695;28;20049;-64
2023/08/08 00:15:36;;;;;;;9.98;2.33;;;;;;;18.44;65.14;101331.50;5054192;28;20088;-63
2023/08/08 00:18:04;;;;;;;4.88;1.90;;;;;;;18.62;65.02;101326.47;5053414;28;20056;-64
2023/08/08 00:20:31;;;;;;;5.85;1.92;;;;;;;18.61;64.81;101322.88;5055100;28;20053;-64
2023/08/08 00:22:58;;;;;;;9.05;1.90;;;;;;;18.54;64.81;101327.41;5054614;28;20053;-62
2023/08/08 00:25:26;;;;;;;8.82;2.10;;;;;;;18.23;65.17;101325.22;5041290;28;20708;-62
2023/08/08 00:27:54;;;;;;;8.05;2.47;;;;;;;18.42;65.11;101328.25;5033889;28;20049;-61
2023/08/08 00:30:21;;;;;;;5.95;2.10;;;;;;;18.56;64.59;101337.06;5034587;28;20054;-62
2023/08/08 00:32:48;;;;;;;5.35;1.85;;;;;;;18.61;64.26;101327.63;5034771;28;20048;-61
2023/08/08 00:35:16;;;;;;;11.82;2.42;;;;;;;18.44;64.39;101327.91;5074510;28;20063;-61
2023/08/08 00:37:44;;;;;;;8.48;2.20;;;;;;;18.39;64.97;101330.91;5052604;28;20052;-61
2023/08/08 00:40:12;;;;;;;7.85;2.53;;;;;;;18.38;64.78;101320.88;5036592;28;20068;-62
2023/08/08 00:42:39;;;;;;;6.45;2.05;;;;;;;18.21;65.55;101321.97;5053667;28;20064;-62
2023/08/08 00:45:07;;;;;;;9.43;2.38;;;;;;;18.07;65.80;101317.91;5052642;28;20053;-62
2023/08/08 00:47:35;;;;;;;8.05;2.13;;;;;;;18.11;65.94;101313.25;5054532;28;20045;-62
2023/08/08 00:50:03;;;;;;;7.28;1.92;;;;;;;18.08;66.14;101311.19;5036363;28;20132;-62
2023/08/08 00:52:30;;;;;;;7.13;2.70;;;;;;;17.91;66.68;101304.69;5036282;28;20052;-62
2023/08/08 00:54:59;;;;;;;6.45;2.38;;;;;;;18.06;66.69;101296.78;5053387;28;20048;-62
2023/08/08 00:57:26;;;;;;;11.20;2.70;;;;;;;18.07;66.72;101290.03;5049040;28;20041;-62
2023/08/08 00:59:54;;;;;;;6.18;2.30;;;;;;;18.21;66.04;101296.88;5062745;28;20056;-61
2023/08/08 01:02:21;;;;;;;8.02;2.33;;;;;;;18.21;66.01;101294.09;5069152;28;20060;-61
2023/08/08 01:04:49;;;;;;;7.38;2.30;;;;;;;18.03;66.61;101300.28;5052781;28;20449;-63
2023/08/08 01:07:31;;;;;;;11.02;2.60;;;;;;;17.78;67.34;101297.47;5052694;28;20052;-62
2023/08/08 01:10:07;;;;;;;6.18;2.28;;;;;;;17.81;67.72;101301.53;5052852;28;20048;-62
2023/08/08 01:12:40;;;;;;;6.07;2.13;;;;;;;17.96;67.52;101293.28;5050326;28;20164;-62
2023/08/08 01:15:10;;;;;;;8.50;2.33;;;;;;;18.08;66.58;101294.47;5053781;28;20072;-61
2023/08/08 01:17:38;;;;;;;7.10;2.35;;;;;;;17.99;66.59;101295.38;5032646;28;20056;-62
2023/08/08 01:20:06;;;;;;;7.10;2.28;;;;;;;17.94;67.28;101290.03;5032773;28;20050;-62
2023/08/08 01:22:48;;;;;;;5.93;2.28;;;;;;;17.82;67.82;101294.78;5031827;28;20060;-62
2023/08/08 01:25:15;;;;;;;10.07;2.80;;;;;;;17.96;67.00;101296.06;5041514;28;20055;-62
2023/08/08 01:27:43;;;;;;;8.55;2.15;;;;;;;17.89;67.61;101295.03;5053729;28;20052;-61
2023/08/08 01:30:11;;;;;;;5.75;2.17;;;;;;;17.71;68.01;101302.78;5052113;28;20060;-62
2023/08/08 01:32:39;;;;;;;8.32;2.00;;;;;;;17.84;68.06;101301.66;5051696;28;20045;-62
2023/08/08 01:35:07;;;;;;;7.85;1.90;;;;;;;17.79;67.81;101303.84;5053642;28;20415;-62
2023/08/08 01:37:48;;;;;;;7.55;2.47;;;;;;;17.93;67.79;101301.53;5052314;28;20048;-62
2023/08/08 01:40:15;;;;;;;;;;;;;;;17.84;67.84;101304.44;5052712;28;20053;-62
2023/08/08 01:42:47;;;;;;;5.55;2.00;;;;;;;17.84;68.26;101296.06;5051299;28;19921;-62
2023/08/08 01:45:18;;;;;;;7.35;2.22;;;;;;;17.89;67.69;101298.63;5048323;28;20128;-62
2023/08/08 01:47:52;;;;;;;5.90;2.00;;;;;;;17.72;68.68;101298.88;5032617;28;20053;-61
2023/08/08 01:50:21;;;;;;;8.50;2.22;;;;;;;17.88;67.94;101297.03;5037304;28;20052;-62
2023/08/08 01:52:48;;;;;;;6.05;1.80;;;;;;;17.89;67.78;101301.41;5050315;28;20048;-62
2023/08/08 01:55:15;;;;;;;9.27;2.30;;;;;;;17.97;67.51;101302.47;5053883;28;20053;-61
2023/08/08 01:57:43;;;;;;;7.53;2.10;;;;;;;17.96;67.70;101298.03;5051579;28;20049;-62
2023/08/08 02:00:11;;;;;;;8.30;2.00;;;;;;;17.89;68.16;101295.84;5051940;28;20056;-61
2023/08/08 02:02:42;;;;;;;9.90;2.17;;;;;;;17.90;68.09;101294.66;5051993;28;20053;-62
2023/08/08 02:05:11;;;;;;;8.13;2.42;;;;;;;17.88;68.19;101290.63;5053567;28;20056;-63
2023/08/08 02:07:38;;;;;;;5.93;1.65;;;;;;;18.01;67.85;101286.66;5035545;28;20064;-62
2023/08/08 02:10:06;;;;;;;9.20;2.25;;;;;;;18.22;67.07;101289.31;5032354;28;20045;-62
2023/08/08 02:12:33;;;;;;;10.35;2.25;;;;;;;18.09;67.54;101285.72;5033411;28;20521;-62
2023/08/08 02:15:01;;;;;;;6.57;2.10;;;;;;;17.84;68.44;101286.91;5053305;28;20064;-60
2023/08/08 02:17:28;;;;;;;8.85;2.40;;;;;;;17.60;69.55;101282.13;5052165;28;20049;-61
2023/08/08 02:19:56;;;;;;;8.13;2.13;;;;;;;17.63;69.49;101280.63;5053918;28;20072;-61
2023/08/08 02:22:25;;;;;;;6.95;2.15;;;;;;;17.80;69.57;101267.28;5052984;28;20057;-62
2023/08/08 02:24:52;;;;;;;6.75;1.90;;;;;;;18.07;68.57;101267.72;5052560;28;20057;-61
2023/08/08 02:27:20;;;;;;;9.65;2.40;;;;;;;18.16;67.99;101271.19;5036157;28;20401;-62
2023/08/08 02:29:47;;;;;;;6.93;2.40;;;;;;;17.78;69.11;101272.38;5037173;28;20045;-62
2023/08/08 02:32:14;;;;;;;9.43;2.60;;;;;;;17.77;69.32;101270.75;5035523;28;20045;-62
2023/08/08 02:34:42;;;;;;;9.93;2.45;;;;;;;17.89;69.04;101267.16;5040302;28;20045;-61
2023/08/08 02:37:09;;;;;;;9.23;2.33;;;;;;;17.79;69.46;101262.06;5056449;28;20053;-61
2023/08/08 02:39:37;;;;;;;9.77;2.30;;;;;;;17.72;69.59;101257.06;5056950;28;20050;-62
2023/08/08 02:42:05;;;;;;;10.48;2.30;;;;;;;17.82;69.65;101255.78;5056679;28;20052;-61
2023/08/08 02:44:32;;;;;;;8.27;2.33;;;;;;;17.84;69.54;101261.81;5056796;28;20490;-61
2023/08/08 02:47:00;;;;;;;6.55;2.25;;;;;;;17.82;69.28;101256.59;5055238;28;20048;-62
2023/08/08 02:49:28;;;;;;;11.48;2.33;;;;;;;17.76;69.88;101258.00;5055504;28;20652;-62
2023/08/08 02:51:55;;;;;;;8.05;2.05;;;;;;;17.76;70.08;101268.31;5054684;28;20049;-61
2023/08/08 02:54:26;;;;;;;6.25;1.85;;;;;;;17.65;70.55;101265.19;5049284;28;20128;-62
2023/08/08 02:56:54;;;;;;;7.63;2.00;;;;;;;17.71;70.76;101266.56;5055696;28;20053;-61
2023/08/08 02:59:21;;;;;;;8.98;2.50;;;;;;;17.87;70.03;101258.31;5074377;28;20064;-62
2023/08/08 03:01:51;;;;;;;4.90;1.70;;;;;;;17.96;69.63;101267.38;5075492;28;20059;-62
2023/08/08 03:04:19;;;;;;;8.23;1.70;;;;;;;18.16;69.03;101274.00;5074198;28;20048;-63
2023/08/08 03:06:46;;;;;;;6.43;1.95;;;;;;;17.94;69.65;101275.28;5054900;28;20060;-62
2023/08/08 03:09:14;;;;;;;8.35;2.08;;;;;;;17.94;69.26;101264.94;5051515;28;20042;-62
2023/08/08 03:11:42;;;;;;;8.10;2.10;;;;;;;17.94;69.45;101264.94;5052023;28;20049;-60
2023/08/08 03:14:13;;;;;;;10.77;2.28;;;;;;;18.05;69.59;101256.09;5067436;28;20496;-62
2023/08/08 03:16:41;;;;;;;7.53;2.00;;;;;;;17.93;70.00;101254.16;5074819;28;20056;-61
2023/08/08 03:19:10;;;;;;;8.98;2.30;;;;;;;17.78;70.28;101255.66;5074491;28;20404;-62
2023/08/08 03:21:38;;;;;;;5.32;1.90;;;;;;;17.85;70.16;101264.25;5073781;28;20063;-62
2023/08/08 03:24:06;;;;;;;7.38;1.90;;;;;;;17.87;69.87;101258.31;5073610;28;20049;-61
2023/08/08 03:26:34;;;;;;;8.52;2.15;;;;;;;17.89;69.80;101258.78;5054598;28;20052;-62
2023/08/08 03:29:01;;;;;;;6.97;2.10;;;;;;;17.78;70.04;101266.00;5037293;28;20318;-62
2023/08/08 03:31:35;;;;;;;7.72;2.20;;;;;;;17.96;69.61;101268.19;5054108;28;20067;-62
2023/08/08 03:34:04;;;;;;;7.38;1.80;;;;;;;17.95;69.17;101263.81;5053453;28;20041;-62
2023/08/08 03:36:33;;;;;;;6.38;1.70;;;;;;;17.97;69.42;101267.03;5054160;28;20052;-62
2023/08/08 03:39:00;;;;;;;8.10;1.90;;;;;;;18.02;69.07;101276.31;5053368;28;20052;-62
2023/08/08 03:41:28;;;;;;;9.13;1.83;;;;;;;18.04;69.17;101276.78;5055700;28;20057;-62
2023/08/08 03:43:56;;;;;;;9.27;2.50;;;;;;;18.03;69.17;101275.97;5054340;28;20538;-62
2023/08/08 03:46:25;;;;;;;13.57;2.50;;;;;;;17.86;70.16;101270.63;5053849;28;20049;-62
2023/08/08 03:48:52;;;;;;;9.55;2.22;;;;;;;17.98;69.86;101265.06;5055963;28;20056;-63
2023/08/08 03:51:21;;;;;;;8.45;2.00;;;;;;;17.92;69.90;101272.84;5055390;28;20468;-63
2023/08/08 03:53:48;;;;;;;11.50;2.30;;;;;;;17.91;70.39;101275.97;5054126;28;20080;-62
2023/08/08 03:56:16;;;;;;;8.23;2.28;;;;;;;17.83;70.26;101288.88;5037612;28;20052;-63
2023/08/08 03:58:43;;;;;;;7.63;2.20;;;;;;;17.77;70.94;101286.66;5070103;28;20037;-63
2023/08/08 04:01:11;;;;;;;7.82;2.30;;;;;;;17.59;71.43;101285.28;5075599;28;20075;-62
2023/08/08 04:03:39;;;;;;;7.32;2.30;;;;;;;17.54;72.26;101285.50;5075386;28;20044;-62
2023/08/08 04:06:07;;;;;;;8.38;2.47;;;;;;;17.45;72.67;101288.34;5057227;28;20420;-63
2023/08/08 04:08:34;;;;;;;7.35;2.15;;;;;;;17.49;72.83;101288.47;5037026;28;20051;-62
2023/08/08 04:11:02;;;;;;;8.35;2.22;;;;;;;17.57;72.68;101290.38;5055297;28;20057;-63
2023/08/08 04:13:29;;;;;;;6.28;1.98;;;;;;;17.70;72.51;101286.44;5064241;28;20549;-62
2023/08/08 04:15:57;;;;;;;7.35;2.30;;;;;;;17.80;72.21;101292.34;5064621;28;20060;-63
2023/08/08 04:18:24;;;;;;;9.88;2.97;;;;;;;17.95;71.65;101294.47;5053788;28;20532;-62
2023/08/08 04:20:51;;;;;;;8.25;2.10;;;;;;;17.94;71.51;101290.03;5053917;28;20049;-62
2023/08/08 04:23:19;;;;;;;10.30;2.53;;;;;;;17.92;71.34;101285.97;5036334;28;20671;-63
2023/08/08 04:25:46;;;;;;;9.10;2.65;;;;;;;18.05;70.86;101287.59;5052643;28;20064;-63
2023/08/08 04:28:14;;;;;;;6.20;2.15;;;;;;;17.71;72.54;101288.84;5055088;28;20045;-62
2023/08/08 04:30:41;;;;;;;7.63;2.45;;;;;;;17.77;72.90;101286.66;5054519;28;20532;-62
2023/08/08 04:33:09;;;;;;;9.00;2.35;;;;;;;17.89;72.59;101286.66;5052948;28;20051;-64
2023/08/08 04:35:36;;;;;;;7.88;2.20;;;;;;;17.87;72.48;101281.44;5053468;28;20712;-62
2023/08/08 04:38:04;;;;;;;9.43;2.58;;;;;;;17.68;73.02;101284.00;5054136;28;20057;-62
2023/08/08 04:40:31;;;;;;;8.60;2.15;;;;;;;17.74;73.08;101276.22;5052244;28;20051;-62
2023/08/08 04:42:58;;;;;;;7.10;2.38;;;;;;;17.80;72.40;101286.78;5053040;28;20056;-62
2023/08/08 04:45:27;;;;;;;8.25;2.10;;;;;;;17.76;72.52;101285.88;5052546;28;20053;-63
2023/08/08 04:47:55;;;;;;;10.60;2.47;;;;;;;17.79;72.27;101290.75;5054031;28;20052;-63
2023/08/08 04:50:22;;;;;;;8.82;2.70;;;;;;;17.56;72.77;101294.31;5052714;28;20048;-65
2023/08/08 04:52:49;;;;;;;9.25;2.83;;;;;;;17.46;73.17;101287.22;5054050;28;20045;-62
2023/08/08 04:55:17;;;;;;;9.50;2.15;;;;;;;17.49;73.58;101291.28;5054507;28;20052;-63
2023/08/08 04:57:44;;;;;;;11.80;2.80;;;;;;;17.46;73.78;101294.72;5054655;28;20059;-63
2023/08/08 05:00:14;;;;;;;7.32;2.08;;;;;;;17.61;73.17;101283.75;5053881;28;20050;-62
2023/08/08 05:02:41;;;;;;;10.80;2.83;;;;;;;17.75;72.87;101291.75;5053093;28;20048;-63
2023/08/08 05:05:09;;;;;;;7.63;2.25;;;;;;;17.75;73.01;101283.41;5086331;28;20679;-62
2023/08/08 05:07:37;;;;;;;10.68;2.75;;;;;;;17.52;73.71;101280.25;5053561;28;20048;-62
2023/08/08 05:10:05;;;;;;;8.48;2.78;;;;;;;17.70;73.60;101289.22;5052932;28;20045;-62
2023/08/08 05:12:33;;;;;;;6.95;2.65;;;;;;;17.61;73.72;101285.72;5055712;28;20056;-62
2023/08/08 05:15:00;;;;;;;9.60;2.83;;;;;;;17.69;73.60;101288.41;5071912;28;20527;-63
2023/08/08 05:17:30;;;;;;;7.68;2.70;;;;;;;17.81;73.23;101282.84;5072724;28;20048;-63
2023/08/08 05:19:57;;;;;;;6.68;2.20;;;;;;;17.81;73.41;101277.28;5056436;28;20044;-62
2023/08/08 05:22:25;;;;;;;8.45;2.72;;;;;;;17.71;73.70;101283.28;5073903;28;20400;-63
2023/08/08 05:24:52;;;;;;;5.30;2.20;;;;;;;17.75;74.16;101275.03;5065108;28;20053;-62
2023/08/08 05:27:20;;;;;;;7.50;2.33;;;;;;;17.63;74.04;101270.28;5053755;28;20060;-62
2023/08/08 05:29:47;;;;;;;10.75;2.88;;;;;;;17.61;74.34;101277.34;5052882;28;20568;-62
2023/08/08 05:32:14;;;;;;;8.85;2.20;;;;;;;17.76;73.91;101274.72;5053848;28;20044;-62
2023/08/08 05:34:42;;;;;;;9.02;2.58;;;;;;;17.84;73.53;101276.56;5053467;28;20052;-61
2023/08/08 05:37:09;;;;;;;8.07;2.10;;;;;;;17.87;73.35;101275.03;5053328;28;20063;-62
2023/08/08 05:39:44;;;;;;;10.73;2.33;;;;;;;17.75;73.74;101275.88;5084023;28;20047;-63
2023/08/08 05:42:12;;;;;;;9.73;2.20;;;;;;;17.92;73.25;101278.41;5053606;28;20051;-62
2023/08/08 05:44:41;;;;;;;8.95;2.20;;;;;;;18.04;72.46;101274.00;5085135;28;20056;-62
2023/08/08 05:47:09;;;;;;;9.88;2.20;;;;;;;18.01;73.11;101274.72;5053541;28;20052;-63
2023/08/08 05:49:38;;;;;;;8.25;2.22;;;;;;;18.03;72.88;101273.19;5040971;28;20049;-62
2023/08/08 05:52:06;;;;;;;10.25;2.42;;;;;;;17.89;73.50;101279.13;5053140;28;20409;-63
2023/08/08 05:54:33;;;;;;;8.05;2.20;;;;;;;17.85;73.53;101289.34;5053644;28;20053;-62
2023/08/08 05:57:02;;;;;;;10.40;2.35;;;;;;;18.06;72.81;101291.19;5054174;28;20056;-62
2023/08/08 05:59:30;;;;;;;8.85;2.15;;;;;;;18.29;71.55;101290.34;5051661;28;20083;-63
2023/08/08 06:01:58;;;;;;;11.13;2.38;;;;;;;18.29;71.62;101298.72;5065353;28;20060;-63
2023/08/08 06:04:27;;;;;;;9.80;2.10;;;;;;;18.41;71.16;101297.94;5042972;28;20057;-63
2023/08/08 06:06:54;;;;;;;10.68;2.35;;;;;;;18.41;71.59;101295.13;5044918;28;20054;-63
2023/08/08 06:09:22;;;;;;;9.18;2.30;;;;;;;18.48;70.77;101287.78;5056394;28;20053;-63
2023/08/08 06:11:49;;;;;;;7.80;1.95;;;;;;;18.37;71.62;101291.38;5053970;28;20053;-62
2023/08/08 06:14:17;;;;;;;6.43;2.00;;;;;;;18.41;71.42;101293.13;5057517;28;20056;-63
2023/08/08 06:16:46;;;;;;;7.00;1.80;;;;;;;18.40;71.05;101305.47;5089492;28;20052;-62
2023/08/08 06:19:15;;;;;;;8.68;2.17;;;;;;;18.36;70.90;101307.28;5056921;28;20691;-62
2023/08/08 06:21:43;;;;;;;7.97;2.70;;;;;;;18.47;70.86;101307.66;5057474;28;20036;-62
2023/08/08 06:24:10;;;;;;;12.20;2.45;;;;;;;18.80;69.07;101305.47;5057630;28;20702;-62
2023/08/08 06:26:38;;;;;;;7.72;2.22;;;;;;;18.61;69.73;101317.28;5048125;28;20045;-62
2023/08/08 06:29:05;;;;;;;7.95;2.10;;;;;;;18.72;69.18;101318.44;5049746;28;20056;-62
2023/08/08 06:31:32;;;;;;;10.85;2.22;;;;;;;18.37;69.79;101313.69;5057944;28;20437;-63
2023/08/08 06:34:00;;;;;;;10.77;2.30;;;;;;;18.47;70.04;101308.47;5056853;28;20508;-62
2023/08/08 06:36:27;;;;;;;8.98;2.53;;;;;;;18.19;70.27;101312.31;5057049;28;20052;-63
2023/08/08 06:38:55;;;;;;;13.52;2.80;;;;;;;18.15;71.53;101311.41;5056744;28;20048;-62
2023/08/08 06:41:22;;;;;;;13.07;2.50;;;;;;;18.40;70.65;101313.00;5057919;28;20500;-61
2023/08/08 06:43:49;;;;;;;7.55;2.28;;;;;;;18.47;70.62;101316.03;5029654;28;20080;-64
2023/08/08 06:46:17;;;;;;;9.95;2.58;;;;;;;18.55;70.58;101309.53;5046181;28;20064;-67
2023/08/08 06:48:45;;;;;;;15.57;2.10;;;;;;;18.20;68.59;101305.59;5049700;28;20068;-63
2023/08/08 06:51:13;;;;;;;8.45;1.80;;;;;;;18.20;70.66;101309.16;5051160;28;20064;-62
2023/08/08 06:53:40;;;;;;;6.22;1.73;;;;;;;18.11;69.24;101313.25;5044830;28;20040;-61
2023/08/08 06:56:08;;;;;;;9.55;2.08;;;;;;;17.75;70.96;101308.47;5050667;28;20067;-64
2023/08/08 06:58:35;;;;;;;8.02;1.63;;;;;;;17.96;70.02;101296.06;5046966;28;20484;-61
2023/08/08 07:01:03;;;;;;;14.52;2.10;;;;;;;18.14;67.98;101302.22;5047723;28;20048;-61
2023/08/08 07:03:30;;;;;;;7.97;1.77;;;;;;;18.33;67.25;101302.44;5047065;28;20056;-62
2023/08/08 07:06:00;;;;;;;7.40;1.80;;;;;;;18.34;66.79;101297.66;5048000;28;20052;-63
2023/08/08 07:08:29;;;;;;;5.53;1.60;;;;;;;18.44;66.68;101300.81;5045662;28;20045;-60
2023/08/08 07:10:59;;;;;;;9.80;1.60;;;;;;;18.29;65.85;101298.72;5045860;28;20049;-62
2023/08/08 07:13:26;;;;;;;6.53;1.60;;;;;;;18.20;65.27;101309.16;5050549;28;20056;-61
2023/08/08 07:15:54;;;;;;;8.77;1.80;;;;;;;18.28;65.29;101291.53;5055532;28;20057;-62
2023/08/08 07:18:22;;;;;;;8.63;2.00;;;;;;;18.58;64.62;101290.09;5038212;28;20045;-62
2023/08/08 07:20:49;;;;;;;7.28;1.73;;;;;;;18.84;64.13;101293.25;5054207;28;20055;-63
2023/08/08 07:23:17;;;;;;;6.03;1.30;;;;;;;18.97;63.67;101302.38;5048091;28;20060;-64
2023/08/08 07:25:46;;;;;;;7.68;1.90;;;;;;;19.36;59.85;101286.72;5050502;28;20052;-63
2023/08/08 07:28:18;;;;;;;8.18;1.90;;;;;;;19.35;58.50;101285.94;5059696;28;20053;-62
2023/08/08 07:30:45;;;;;;;9.20;1.70;;;;;;;19.30;58.28;101275.00;5055552;28;20052;-63
2023/08/08 07:33:13;;;;;;;7.15;1.73;;;;;;;18.92;59.81;101277.50;5053664;28;20532;-61
2023/08/08 07:35:41;;;;;;;5.93;1.88;;;;;;;18.90;60.58;101279.84;5050412;28;20532;-61
2023/08/08 07:38:11;;;;;;;8.70;1.73;;;;;;;18.95;60.50;101276.81;5054779;28;20068;-61
2023/08/08 07:40:40;;;;;;;;;;;;;;;18.94;60.70;101281.56;5059340;28;20061;-60
2023/08/08 07:43:07;;;;;;;6.60;1.75;;;;;;;18.98;61.01;101284.47;5059128;28;19929;-61
2023/08/08 07:45:35;;;;;;;8.65;1.60;;;;;;;19.14;60.49;101279.75;5051163;28;20049;-62
2023/08/08 07:48:03;;;;;;;6.85;1.63;;;;;;;19.37;60.39;101272.41;5065655;28;20049;-62
2023/08/08 07:50:31;;;;;;;11.27;2.10;;;;;;;19.11;60.85;101274.06;5062006;28;20115;-61
2023/08/08 07:52:59;;;;;;;7.97;1.83;;;;;;;19.11;61.73;101274.84;5050009;28;20523;-61
2023/08/08 07:55:26;;;;;;;7.60;1.77;;;;;;;19.03;61.74;101279.44;5050536;28;20697;-60
2023/08/08 07:57:53;;;;;;;6.88;2.28;;;;;;;18.97;62.46;101282.81;5074273;28;20057;-60
2023/08/08 08:00:22;;;;;;;7.93;1.75;;;;;;;19.04;61.74;101280.25;5054064;28;20059;-60
2023/08/08 08:02:49;;;;;;;6.28;1.77;;;;;;;19.46;61.22;101264.66;5049937;28;20780;-60
2023/08/08 08:05:18;;;;;;;15.45;2.20;;;;;;;19.84;60.18;101264.81;5058266;28;20526;-62
2023/08/08 08:07:45;;;;;;;13.05;2.05;;;;;;;19.96;59.58;101267.50;5052805;28;20083;-61
2023/08/08 08:10:13;;;;;;;7.00;1.88;;;;;;;20.00;58.47;101274.00;5051278;28;20064;-61
2023/08/08 08:12:41;;;;;;;10.15;2.00;;;;;;;20.40;57.51;101264.56;5044043;28;20046;-61
2023/08/08 08:15:09;;;;;;;7.82;1.90;;;;;;;20.34;57.35;101266.84;5045017;28;20519;-60
2023/08/08 08:17:37;;;;;;;8.35;1.83;;;;;;;20.14;57.57;101262.34;5050272;28;20053;-62
2023/08/08 08:20:09;;;;;;;6.68;1.75;;;;;;;20.45;57.05;101272.69;5049874;28;20050;-61
2023/08/08 08:22:38;;;;;;;6.53;1.77;;;;;;;20.17;57.24;101267.25;5049194;28;20045;-62
2023/08/08 08:25:08;;;;;;;9.93;1.70;;;;;;;19.97;56.31;101266.34;5054405;28;20040;-62
2023/08/08 08:27:36;;;;;;;9.45;2.13;;;;;;;20.19;55.91;101267.69;5048393;28;20116;-61
2023/08/08 08:30:06;;;;;;;10.25;1.67;;;;;;;20.47;53.94;101259.91;5049429;28;20052;-62
2023/08/08 08:32:34;;;;;;;13.00;2.33;;;;;;;20.52;53.28;101261.63;5043746;28;20049;-62
2023/08/08 08:35:06;;;;;;;4.30;1.20;;;;;;;20.47;52.15;101264.72;5048077;28;20045;-61
2023/08/08 08:37:34;;;;;;;6.80;1.48;;;;;;;20.90;50.48;101254.03;5072576;28;20068;-61
2023/08/08 08:40:04;;;;;;;4.95;1.40;;;;;;;20.45;52.08;101255.88;5068365;28;20064;-60
2023/08/08 08:42:33;;;;;;;5.85;1.30;;;;;;;20.23;51.11;101262.97;5053625;28;20056;-60
2023/08/08 08:45:02;;;;;;;6.75;0.93;;;;;;;20.08;51.93;101261.00;5051540;28;20049;-61
2023/08/08 08:47:31;;;;;;;4.65;1.20;;;;;;;20.12;51.84;101257.13;5048721;28;20508;-60
2023/08/08 08:50:01;;;;;;;5.13;1.50;;;;;;;20.19;51.06;101256.50;5049262;28;20123;-60
2023/08/08 08:52:29;;;;;;;8.60;1.40;;;;;;;20.12;51.11;101273.06;5069005;28;20045;-61
2023/08/08 08:54:57;;;;;;;7.68;1.30;;;;;;;20.07;51.25;101268.59;5035987;28;20036;-61
2023/08/08 08:57:25;;;;;;;8.52;1.30;;;;;;;20.23;50.66;101267.75;5055124;28;20044;-62
2023/08/08 08:59:53;;;;;;;4.10;1.45;;;;;;;20.51;50.45;101266.41;5046472;28;20728;-60
2023/08/08 09:02:20;;;;;;;6.68;1.50;;;;;;;20.37;50.66;101268.09;5049721;28;20594;-61
2023/08/08 09:04:48;;;;;;;5.72;1.38;;;;;;;20.67;50.63;101264.38;5047914;28;20056;-61
2023/08/08 09:07:20;;;;;;;4.18;1.08;;;;;;;20.36;50.64;101261.69;5052638;28;20048;-60
2023/08/08 09:09:47;;;;;;;4.90;1.38;;;;;;;20.04;51.60;101258.13;5045474;28;20048;-61
2023/08/08 09:12:16;;;;;;;7.15;1.60;;;;;;;20.12;51.98;101259.91;5056572;28;20404;-61
2023/08/08 09:14:45;;;;;;;7.30;1.35;;;;;;;20.41;51.20;101250.22;5081722;28;20052;-59
2023/08/08 09:17:13;;;;;;;8.27;1.85;;;;;;;20.55;51.22;101255.28;5057584;28;20057;-61
2023/08/08 09:19:44;;;;;;;6.55;1.70;;;;;;;20.97;50.58;101254.16;5046151;28;20057;-63
2023/08/08 09:22:14;;;;;;;6.25;1.17;;;;;;;20.95;49.29;101252.94;5067672;28;20041;-61
2023/08/08 09:24:42;;;;;;;8.23;1.70;;;;;;;20.63;50.55;101257.06;5062982;28;20573;-61
2023/08/08 09:27:10;;;;;;;6.60;1.50;;;;;;;20.22;51.79;101252.97;5051389;28;20057;-62
2023/08/08 09:29:38;;;;;;;7.78;1.35;;;;;;;20.42;51.80;101251.00;5040127;28;20053;-62
2023/08/08 09:32:06;;;;;;;5.40;1.40;;;;;;;20.59;51.85;101250.59;5039270;28;20041;-61
2023/08/08 09:34:34;;;;;;;9.35;1.42;;;;;;;20.82;51.55;101252.28;5042534;28;20056;-60
2023/08/08 09:37:03;;;;;;;5.00;1.27;;;;;;;21.11;51.22;101237.66;5042796;28;20029;-61
2023/08/08 09:39:30;;;;;;;5.05;1.45;;;;;;;21.46;49.94;101240.31;5031138;28;20052;-61
2023/08/08 09:41:57;;;;;;;6.82;2.10;;;;;;;21.70;49.64;101239.09;5045628;28;20048;-61
2023/08/08 09:44:28;;;;;;;7.10;1.98;;;;;;;21.93;49.00;101234.31;5031638;28;20075;-61
2023/08/08 09:46:56;;;;;;;6.22;2.30;;;;;;;21.92;48.98;101222.28;5043878;28;20045;-61
2023/08/08 09:49:23;;;;;;;9.82;4.20;;;;;;;21.93;48.49;101221.06;5048757;28;20054;-62
2023/08/08 09:51:51;;;;;;;6.47;3.20;;;;;;;22.00;48.88;101221.19;5048543;28;20615;-63
2023/08/08 09:54:19;;;;;;;5.80;1.70;;;;;;;21.26;50.50;101216.31;5045432;28;20053;-63
2023/08/08 09:56:49;;;;;;;7.93;2.80;;;;;;;21.39;50.20;101226.19;5046491;28;20378;-60
2023/08/08 09:59:18;;;;;;;6.30;1.73;;;;;;;21.40;50.78;101219.38;5050885;28;20045;-61
2023/08/08 10:01:46;;;;;;;9.40;2.13;;;;;;;21.73;49.79;101218.72;5048533;28;20072;-62
2023/08/08 10:04:14;;;;;;;6.25;1.63;;;;;;;21.69;50.77;101212.25;5048370;28;20592;-62
2023/08/08 10:06:41;;;;;;;8.98;1.70;;;;;;;21.85;49.76;101219.34;5048733;28;20041;-62
2023/08/08 10:09:11;;;;;;;6.90;1.60;;;;;;;21.93;49.70;101221.06;5049406;28;20057;-61
2023/08/08 10:11:41;;;;;;;6.50;1.50;;;;;;;21.96;48.98;101213.91;5046830;28;20052;-61
2023/08/08 10:14:10;;;;;;;5.35;1.60;;;;;;;22.05;49.29;101217.25;5045858;28;20396;-62
2023/08/08 10:16:37;;;;;;;4.22;1.40;;;;;;;22.08;49.73;101208.06;5046236;28;20041;-61
2023/08/08 10:19:05;;;;;;;5.30;1.65;;;;;;;21.49;50.53;101200.31;5030641;28;20049;-61
2023/08/08 10:21:37;;;;;;;7.32;1.65;;;;;;;21.67;50.40;101207.00;5039576;28;20052;-62
2023/08/08 10:24:06;;;;;;;6.32;1.77;;;;;;;21.75;50.24;101196.72;5044405;28;20049;-61
2023/08/08 10:26:50;;;;;;;9.13;1.85;;;;;;;22.07;50.25;101193.22;5036896;28;20057;-62
2023/08/08 10:29:19;;;;;;;7.20;1.80;;;;;;;22.22;50.14;101197.84;5039249;28;20726;-61
2023/08/08 10:31:58;;;;;;;12.30;2.30;;;;;;;21.97;50.49;101193.88;5037095;28;20053;-61
2023/08/08 10:34:46;;;;;;;15.10;2.95;;;;;;;21.72;50.97;101195.50;5027423;28;20457;-62
2023/08/08 10:37:15;;;;;;;37.90;11.63;;;;;;;21.51;50.93;101188.72;5043818;28;20497;-60
2023/08/08 10:39:58;;;;;;;100.97;27.05;;;;;;;22.07;51.69;101189.63;5042302;28;20052;-60
2023/08/08 10:42:27;;;;;;;79.18;21.75;;;;;;;22.31;50.68;101189.16;5046831;28;20049;-61
2023/08/08 10:44:58;;;;;;;12.98;4.63;;;;;;;22.56;48.89;101186.69;5043397;28;20381;-63
2023/08/08 10:47:36;;;;;;;11.48;3.28;;;;;;;22.94;47.95;101183.50;5047202;28;20055;-62
2023/08/08 10:50:06;;;;;;;32.40;8.85;;;;;;;22.61;49.41;101192.78;5046037;28;20048;-64
2023/08/08 10:52:58;;;;;;;18.88;7.75;;;;;;;22.26;49.99;101195.88;5052312;28;20060;-62
2023/08/08 10:55:34;;;;;;;20.52;7.63;;;;;;;22.30;50.61;101187.50;5047291;28;20060;-61
2023/08/08 10:58:08;;;;;;;9.85;4.43;;;;;;;22.55;50.37;101185.06;5050427;28;20064;-61
2023/08/08 11:00:39;;;;;;;12.82;4.20;;;;;;;23.12;49.62;101185.28;5050283;28;20460;-61
2023/08/08 11:03:08;;;;;;;18.73;5.30;;;;;;;23.15;48.77;101187.31;5051594;28;20050;-61
2023/08/08 11:05:37;;;;;;;13.05;4.65;;;;;;;23.37;47.95;101174.31;5036322;28;20060;-60
2023/08/08 11:08:06;;;;;;;9.88;3.58;;;;;;;23.69;46.67;101168.94;5049632;28;20063;-62
2023/08/08 11:10:38;;;;;;;7.63;2.95;;;;;;;23.97;46.79;101164.28;5062319;28;20052;-62
2023/08/08 11:13:06;;;;;;;6.75;2.50;;;;;;;23.68;46.55;101173.75;5046788;28;20049;-61
2023/08/08 11:15:34;;;;;;;5.35;2.08;;;;;;;22.76;46.68;101174.06;5046017;28;20055;-61
2023/08/08 11:18:02;;;;;;;7.07;2.00;;;;;;;22.44;46.44;101175.69;5050012;28;20120;-62
2023/08/08 11:20:35;;;;;;;9.05;2.10;;;;;;;22.69;47.04;101176.81;5053917;28;20060;-61
2023/08/08 11:23:10;;;;;;;8.07;2.17;;;;;;;22.43;48.25;101176.84;5049516;28;20037;-63
2023/08/08 11:25:44;;;;;;;10.32;3.05;;;;;;;22.44;48.59;101170.84;5047463;28;20056;-62
2023/08/08 11:28:12;;;;;;;7.13;1.95;;;;;;;22.37;47.87;101173.56;5051262;28;20045;-60
2023/08/08 11:30:43;;;;;;;6.85;2.17;;;;;;;22.40;48.41;101164.41;5051250;28;20563;-62